Time;durP1;ratioP1;P1;durP2;ratioP2;P2;SDS_P1;SDS_P2;PMS_P1;PMS_P2;Temp;Humidity;BMP_temperature;BMP_pressure;BME280_temperature;BME280_humidity;BME280_pressure;Samples;Min_cycle;Max_cycle;Signal;HPM_P1;HPM_P2
2022/11/01 00:00:06;;;;;;;8.48;5.32;;;17.00;68.50;;;;;;5032615;28;20026;-40
2022/11/01 00:02:31;;;;;;;7.70;4.22;;;17.20;68.20;;;;;;5032856;28;20375;-38
2022/11/01 00:04:57;;;;;;;13.65;3.97;;;17.10;68.40;;;;;;5031749;28;20028;-39
2022/11/01 00:07:23;;;;;;;10.10;3.20;;;17.30;68.20;;;;;;5033134;28;20018;-39
2022/11/01 00:09:48;;;;;;;14.98;3.90;;;17.50;67.10;;;;;;5032987;28;20052;-39
2022/11/01 00:12:14;;;;;;;9.45;4.93;;;17.40;67.30;;;;;;5033967;28;20026;-39
2022/11/01 00:14:39;;;;;;;10.45;4.32;;;17.50;67.30;;;;;;5032887;28;20028;-38
2022/11/01 00:17:05;;;;;;;13.02;4.38;;;17.40;67.40;;;;;;5033008;28;20065;-38
2022/11/01 00:19:31;;;;;;;7.75;4.35;;;17.30;68.20;;;;;;5033155;28;20108;-39
2022/11/01 00:21:57;;;;;;;14.75;3.58;;;17.40;67.70;;;;;;5033238;28;20056;-38
2022/11/01 00:24:23;;;;;;;15.52;4.68;;;17.30;68.10;;;;;;5032727;28;20406;-39
2022/11/01 00:26:49;;;;;;;5.50;3.20;;;17.30;68.10;;;;;;5032854;28;20024;-38
2022/11/01 00:29:15;;;;;;;8.32;2.65;;;17.40;67.90;;;;;;5033177;28;20030;-38
2022/11/01 00:31:41;;;;;;;11.15;3.00;;;17.40;68.00;;;;;;5033067;28;20334;-38
2022/11/01 00:34:07;;;;;;;8.40;2.72;;;17.40;67.90;;;;;;5033057;28;20064;-39
2022/11/01 00:36:34;;;;;;;10.13;3.22;;;17.50;67.90;;;;;;5032912;28;20045;-38
2022/11/01 00:39:00;;;;;;;12.45;3.42;;;17.60;67.70;;;;;;5032760;28;20030;-38
2022/11/01 00:41:26;;;;;;;9.82;3.35;;;17.60;67.80;;;;;;5031570;28;20033;-47
2022/11/01 00:43:51;;;;;;;6.53;2.75;;;17.50;67.90;;;;;;5033467;28;20122;-39
2022/11/01 00:46:17;;;;;;;9.18;3.25;;;17.40;68.50;;;;;;5036636;28;20013;-39
2022/11/01 00:48:43;;;;;;;5.93;3.03;;;17.50;68.40;;;;;;5037054;28;20022;-39
2022/11/01 00:51:09;;;;;;;12.77;3.83;;;17.50;68.60;;;;;;5036849;28;20025;-39
2022/11/01 00:53:35;;;;;;;6.75;2.67;;;17.30;69.50;;;;;;5036741;28;20104;-39
2022/11/01 00:56:02;;;;;;;7.85;3.40;;;17.50;69.50;;;;;;5036540;28;20484;-46
2022/11/01 00:58:28;;;;;;;9.93;4.28;;;17.30;69.90;;;;;;5036795;28;20108;-39
2022/11/01 01:00:53;;;;;;;8.07;3.47;;;17.40;70.10;;;;;;5036446;28;20061;-39
2022/11/01 01:03:19;;;;;;;11.70;3.60;;;17.30;70.60;;;;;;5036491;28;20044;-40
2022/11/01 01:05:51;;;;;;;11.40;4.18;;;17.40;71.00;;;;;;5036201;28;20438;-38
2022/11/01 01:08:17;;;;;;;7.72;3.38;;;17.40;71.80;;;;;;5036296;28;20022;-39
2022/11/01 01:10:43;;;;;;;8.02;4.18;;;17.30;72.40;;;;;;5035174;28;20013;-39
2022/11/01 01:13:09;;;;;;;12.27;4.65;;;17.30;72.40;;;;;;5035962;28;20397;-39
2022/11/01 01:15:37;;;;;;;9.30;3.28;;;17.20;73.20;;;;;;5036265;28;20140;-38
2022/11/01 01:18:03;;;;;;;9.23;3.05;;;17.10;73.40;;;;;;5035899;28;20029;-39
2022/11/01 01:20:28;;;;;;;8.85;3.00;;;17.10;73.90;;;;;;5034776;28;20021;-38
2022/11/01 01:22:54;;;;;;;7.82;3.17;;;17.00;74.30;;;;;;5035913;28;20055;-39
2022/11/01 01:25:21;;;;;;;9.27;3.30;;;17.00;74.20;;;;;;5036299;28;20382;-38
2022/11/01 01:27:47;;;;;;;7.13;3.30;;;17.00;74.40;;;;;;5036130;28;20025;-38
2022/11/01 01:30:13;;;;;;;7.00;3.22;;;16.90;74.70;;;;;;5034509;28;20076;-38
2022/11/01 01:32:39;;;;;;;12.95;3.38;;;17.00;74.60;;;;;;5034449;28;20021;-39
2022/11/01 01:35:05;;;;;;;8.93;3.45;;;16.80;74.80;;;;;;5034412;28;20064;-39
2022/11/01 01:37:31;;;;;;;11.75;3.38;;;16.80;75.50;;;;;;5035573;28;20420;-39
2022/11/01 01:39:57;;;;;;;8.52;4.00;;;16.80;75.60;;;;;;5035709;28;20030;-39
2022/11/01 01:42:42;;;;;;;13.80;4.60;;;16.80;75.30;;;;;;5035604;28;20025;-38
2022/11/01 01:45:26;;;;;;;8.82;4.00;;;16.80;75.40;;;;;;5035491;28;20033;-38
2022/11/01 01:47:54;;;;;;;6.93;3.38;;;16.80;75.60;;;;;;5035442;28;20029;-37
2022/11/01 01:50:53;;;;;;;11.43;3.85;;;16.80;75.50;;;;;;5035473;28;20021;-39
2022/11/01 01:53:31;;;;;;;7.32;3.30;;;16.80;75.30;;;;;;5035393;28;20087;-38
2022/11/01 01:56:01;;;;;;;13.07;3.78;;;16.70;75.90;;;;;;5035360;28;20078;-38
2022/11/01 01:58:32;;;;;;;13.13;4.18;;;16.70;75.90;;;;;;5035589;28;20022;-38
2022/11/01 02:00:58;;;;;;;10.05;3.60;;;16.60;76.20;;;;;;5033891;28;20061;-38
2022/11/01 02:03:30;;;;;;;10.70;4.05;;;16.70;76.00;;;;;;5034967;28;20025;-38
2022/11/01 02:06:06;;;;;;;9.18;3.40;;;16.70;75.90;;;;;;5035217;28;20028;-38
2022/11/01 02:08:34;;;;;;;10.57;3.75;;;16.70;76.30;;;;;;5035054;28;20096;-38
2022/11/01 02:11:02;;;;;;;10.68;3.60;;;16.70;76.40;;;;;;5034882;28;20410;-39
2022/11/01 02:13:28;;;;;;;9.95;3.25;;;16.70;76.30;;;;;;5034875;28;20064;-39
2022/11/01 02:16:06;;;;;;;12.65;4.13;;;16.80;76.00;;;;;;5034771;28;20524;-39
2022/11/01 02:18:42;;;;;;;7.45;3.20;;;16.70;76.20;;;;;;5034214;28;20026;-39
2022/11/01 02:21:25;;;;;;;7.43;3.75;;;16.70;76.10;;;;;;5035573;28;20031;-38
2022/11/01 02:24:08;;;;;;;9.75;3.63;;;16.70;76.20;;;;;;5034512;28;20049;-39
2022/11/01 02:26:49;;;;;;;12.75;4.22;;;16.80;75.50;;;;;;5034767;28;20028;-39
2022/11/01 02:29:22;;;;;;;;;;;16.80;75.60;;;;;;5034927;28;20428;-39
2022/11/01 02:31:56;;;;;;;9.10;3.40;;;16.80;75.50;;;;;;5034811;28;19911;-38
2022/11/01 02:34:32;;;;;;;8.68;3.83;;;16.80;75.50;;;;;;5034881;28;20462;-39
2022/11/01 02:37:21;;;;;;;7.60;4.50;;;16.80;75.30;;;;;;5034780;28;20022;-39
2022/11/01 02:39:51;;;;;;;12.20;3.85;;;16.80;75.60;;;;;;5034059;28;20120;-39
2022/11/01 02:42:29;;;;;;;14.55;5.68;;;16.80;75.80;;;;;;5033314;28;20086;-39
2022/11/01 02:45:02;;;;;;;7.80;3.08;;;16.80;75.80;;;;;;5034498;28;20033;-38
2022/11/01 02:47:30;;;;;;;5.65;3.20;;;16.80;75.70;;;;;;5033445;28;20026;-38
2022/11/01 02:50:01;;;;;;;6.20;3.30;;;16.80;75.50;;;;;;5034937;28;20033;-39
2022/11/01 02:52:30;;;;;;;10.45;3.30;;;16.70;75.60;;;;;;5034539;28;20478;-39
2022/11/01 02:54:58;;;;;;;8.93;3.38;;;16.70;76.10;;;;;;5034642;28;20026;-39
2022/11/01 02:57:29;;;;;;;12.18;3.72;;;16.70;75.80;;;;;;5034154;28;20072;-38
2022/11/01 03:00:02;;;;;;;10.07;4.00;;;16.60;75.90;;;;;;5034593;28;20087;-39
2022/11/01 03:02:52;;;;;;;12.18;5.65;;;16.60;76.10;;;;;;5034414;28;20041;-39
2022/11/01 03:05:39;;;;;;;6.95;3.42;;;16.50;76.40;;;;;;5034303;28;20025;-38
2022/11/01 03:08:09;;;;;;;13.23;4.32;;;16.50;76.60;;;;;;5033466;28;20076;-38
2022/11/01 03:10:58;;;;;;;14.70;4.43;;;16.50;76.70;;;;;;5033872;28;20113;-38
2022/11/01 03:13:28;;;;;;;11.83;3.23;;;16.50;76.50;;;;;;5034341;28;20416;-39
2022/11/01 03:16:05;;;;;;;9.40;2.97;;;16.50;76.80;;;;;;5033849;28;20053;-39
2022/11/01 03:18:37;;;;;;;6.00;3.50;;;16.50;76.70;;;;;;5033759;28;20041;-39
2022/11/01 03:21:14;;;;;;;7.88;4.38;;;16.40;77.40;;;;;;5033972;28;20088;-39
2022/11/01 03:24:14;;;;;;;13.65;3.75;;;16.40;77.30;;;;;;5033494;28;20409;-39
2022/11/01 03:26:42;;;;;;;10.57;3.80;;;16.30;78.00;;;;;;5032257;28;20021;-39
2022/11/01 03:29:10;;;;;;;6.45;4.43;;;16.30;78.00;;;;;;5032218;28;20116;-39
2022/11/01 03:31:38;;;;;;;8.00;3.78;;;16.30;78.20;;;;;;5033510;28;20025;-39
2022/11/01 03:34:17;;;;;;;8.70;3.67;;;16.30;78.30;;;;;;5032090;28;20037;-40
2022/11/01 03:36:49;;;;;;;6.63;3.03;;;16.20;78.80;;;;;;5031980;28;20064;-39
2022/11/01 03:39:23;;;;;;;6.28;2.78;;;16.20;79.10;;;;;;5033282;28;20029;-38
2022/11/01 03:41:54;;;;;;;12.68;5.38;;;16.20;79.20;;;;;;5033489;28;20400;-38
2022/11/01 03:44:20;;;;;;;9.63;3.65;;;16.30;78.90;;;;;;5034038;28;20025;-38
2022/11/01 03:46:46;;;;;;;6.88;3.33;;;16.20;79.30;;;;;;5033455;28;20108;-37
2022/11/01 03:49:16;;;;;;;6.45;3.17;;;16.30;79.40;;;;;;5031834;28;20068;-37
2022/11/01 03:51:42;;;;;;;15.45;3.67;;;16.30;79.40;;;;;;5033410;28;20100;-38
2022/11/01 03:54:09;;;;;;;5.18;3.45;;;16.40;79.00;;;;;;5033359;28;20107;-38
2022/11/01 03:56:39;;;;;;;7.93;3.50;;;16.30;79.20;;;;;;5031870;28;20029;-38
2022/11/01 03:59:06;;;;;;;11.70;3.70;;;16.40;79.20;;;;;;5033361;28;20033;-39
2022/11/01 04:01:31;;;;;;;8.75;3.25;;;16.30;79.50;;;;;;5032998;28;20025;-38
2022/11/01 04:03:57;;;;;;;9.20;3.35;;;16.30;79.60;;;;;;5033009;28;20029;-40
2022/11/01 04:06:23;;;;;;;8.60;3.47;;;16.30;79.60;;;;;;5031627;28;20103;-39
2022/11/01 04:08:48;;;;;;;14.48;3.90;;;16.30;79.80;;;;;;5031903;28;20190;-38
2022/11/01 04:11:14;;;;;;;5.45;3.72;;;16.30;80.10;;;;;;5032866;28;20060;-38
2022/11/01 04:13:39;;;;;;;10.07;2.92;;;16.30;79.80;;;;;;5031617;28;20029;-39
2022/11/01 04:21:33;;;;;;;4.30;3.35;;;16.30;80.10;;;;;;5033043;28;20428;-39
2022/11/01 04:23:59;;;;;;;4.35;2.85;;;16.30;80.30;;;;;;5032529;28;20124;-39
2022/11/01 04:26:25;;;;;;;17.65;3.60;;;16.30;80.40;;;;;;5032837;28;20195;-39
2022/11/01 04:28:56;;;;;;;9.82;3.63;;;16.30;80.40;;;;;;5032939;28;20022;-39
2022/11/01 04:31:34;;;;;;;13.15;3.58;;;16.30;80.40;;;;;;5031329;28;20025;-39
2022/11/01 04:34:00;;;;;;;6.03;2.75;;;16.30;80.30;;;;;;5032940;28;20095;-38
2022/11/01 04:36:26;;;;;;;7.88;3.78;;;16.30;80.50;;;;;;5032689;28;20401;-38
2022/11/01 04:38:57;;;;;;;9.23;3.55;;;16.40;80.40;;;;;;5032759;28;20107;-38
2022/11/01 04:41:24;;;;;;;9.18;4.28;;;16.40;80.40;;;;;;5033384;28;20044;-38
2022/11/01 04:43:52;;;;;;;8.98;3.47;;;16.50;80.00;;;;;;5033109;28;20030;-39
2022/11/01 04:46:18;;;;;;;7.03;3.25;;;16.30;80.30;;;;;;5033018;28;20026;-40
2022/11/01 04:48:44;;;;;;;8.93;3.33;;;16.30;80.80;;;;;;5032923;28;20112;-38
2022/11/01 04:51:10;;;;;;;4.20;3.05;;;16.30;80.70;;;;;;5032754;28;20101;-39
2022/11/01 04:53:36;;;;;;;12.02;4.00;;;16.30;80.80;;;;;;5031362;28;20048;-38
2022/11/01 04:56:03;;;;;;;9.07;2.80;;;16.30;80.80;;;;;;5033251;28;20060;-39
2022/11/01 04:58:29;;;;;;;8.77;3.47;;;16.40;80.70;;;;;;5032938;28;20480;-38
2022/11/01 05:00:55;;;;;;;8.95;3.47;;;16.40;80.50;;;;;;5032775;28;20104;-39
2022/11/01 05:03:21;;;;;;;8.63;3.65;;;16.50;80.10;;;;;;5033127;28;20396;-38
2022/11/01 05:05:47;;;;;;;6.07;2.97;;;16.50;80.30;;;;;;5032538;28;20059;-39
2022/11/01 05:08:13;;;;;;;6.75;3.33;;;16.60;80.10;;;;;;5032709;28;20029;-38
2022/11/01 05:10:41;;;;;;;9.52;4.72;;;16.50;80.20;;;;;;5033046;28;20454;-39
2022/11/01 05:13:12;;;;;;;5.50;3.50;;;16.50;80.20;;;;;;5031268;28;20025;-38
2022/11/01 05:15:37;;;;;;;;;;;16.50;79.80;;;;;;5033462;28;20029;-38
2022/11/01 05:18:04;;;;;;;7.32;4.07;;;16.70;79.20;;;;;;5032516;28;20253;-39
2022/11/01 05:20:30;;;;;;;7.28;2.63;;;16.80;78.90;;;;;;5032770;28;20033;-39
2022/11/01 05:23:01;;;;;;;3.63;2.50;;;16.80;78.50;;;;;;5030927;28;20045;-37
2022/11/01 05:25:28;;;;;;;7.93;3.13;;;16.70;78.50;;;;;;5031070;28;20026;-38
2022/11/01 05:28:06;;;;;;;3.20;2.20;;;16.70;78.20;;;;;;5032291;28;20026;-38
2022/11/01 05:30:33;;;;;;;7.32;3.47;;;16.70;78.30;;;;;;5033383;28;20048;-39
2022/11/01 05:33:00;;;;;;;9.73;4.15;;;16.60;78.40;;;;;;5035748;28;20026;-37
2022/11/01 05:35:28;;;;;;;8.00;3.08;;;16.60;78.40;;;;;;5036314;28;20108;-38
2022/11/01 05:37:54;;;;;;;6.72;3.15;;;16.40;79.00;;;;;;5035722;28;20541;-38
2022/11/01 05:40:20;;;;;;;8.75;2.90;;;16.50;79.20;;;;;;5034300;28;20389;-39
2022/11/01 05:42:46;;;;;;;7.90;2.42;;;16.60;78.70;;;;;;5035565;28;20052;-38
2022/11/01 05:45:12;;;;;;;8.65;2.60;;;16.70;78.80;;;;;;5036014;28;20501;-38
2022/11/01 05:47:40;;;;;;;11.43;3.58;;;16.60;78.70;;;;;;5034948;28;20029;-38
2022/11/01 05:50:11;;;;;;;6.25;2.38;;;16.70;78.60;;;;;;5036303;28;20470;-39
2022/11/01 05:52:37;;;;;;;6.13;3.10;;;16.70;78.40;;;;;;5036566;28;20029;-39
2022/11/01 05:55:04;;;;;;;6.55;3.00;;;16.70;78.40;;;;;;5036116;28;20030;-42
2022/11/01 05:57:30;;;;;;;9.23;2.60;;;16.80;77.40;;;;;;5035981;28;20462;-38
2022/11/01 05:59:55;;;;;;;6.20;2.22;;;16.80;76.00;;;;;;5036057;28;20026;-40
2022/11/01 06:02:21;;;;;;;4.75;3.05;;;16.80;76.00;;;;;;5036490;28;20021;-39
2022/11/01 06:04:47;;;;;;;5.80;2.20;;;16.90;75.40;;;;;;5036473;28;20069;-40
2022/11/01 06:07:12;;;;;;;9.05;2.25;;;16.80;75.60;;;;;;5036477;28;20433;-38
2022/11/01 06:09:38;;;;;;;3.80;2.38;;;16.80;75.40;;;;;;5036405;28;20034;-39
2022/11/01 06:12:04;;;;;;;4.97;1.63;;;16.80;75.20;;;;;;5036573;28;20087;-39
2022/11/01 06:14:30;;;;;;;4.47;1.95;;;16.80;75.50;;;;;;5034688;28;20026;-39
2022/11/01 16:24:14;;;;;;;6.28;1.77;;;14.80;62.10;;;;;;5072759;28;20413;-39
2022/11/01 16:27:02;;;;;;;7.05;3.00;;;14.70;62.20;;;;;;5069930;28;20059;-40
2022/11/01 16:29:45;;;;;;;4.80;2.05;;;14.80;61.40;;;;;;5071647;28;20042;-40
2022/11/01 16:32:21;;;;;;;11.38;2.55;;;14.80;61.40;;;;;;5071569;28;20083;-40
2022/11/01 16:34:47;;;;;;;10.65;2.33;;;14.80;61.40;;;;;;5070676;28;20423;-39
2022/11/01 16:37:21;;;;;;;10.73;3.10;;;14.80;61.30;;;;;;5070661;28;20032;-39
2022/11/01 16:39:47;;;;;;;9.65;3.65;;;14.70;61.70;;;;;;5070662;28;20519;-38
2022/11/01 16:42:16;;;;;;;6.65;1.90;;;14.80;61.50;;;;;;5071426;28;20021;-40
2022/11/01 16:44:43;;;;;;;3.67;1.67;;;14.70;61.60;;;;;;5070410;28;20380;-40
2022/11/01 16:47:13;;;;;;;8.68;2.88;;;14.60;62.00;;;;;;5070601;28;20033;-43
2022/11/01 16:49:51;;;;;;;9.38;2.10;;;14.60;62.10;;;;;;5070307;28;20039;-38
2022/11/01 16:52:17;;;;;;;7.00;3.85;;;14.60;62.10;;;;;;5069955;28;20025;-39
2022/11/01 16:54:46;;;;;;;9.23;2.83;;;14.50;61.90;;;;;;5069939;28;20025;-39
2022/11/01 16:57:24;;;;;;;8.30;2.67;;;14.60;62.10;;;;;;5069481;28;20021;-39
2022/11/01 16:59:53;;;;;;;13.43;3.30;;;14.50;62.40;;;;;;5070361;28;20025;-38
2022/11/01 17:02:22;;;;;;;13.70;3.67;;;14.50;62.20;;;;;;5069414;28;20107;-39
2022/11/01 17:04:52;;;;;;;5.90;1.60;;;14.50;62.30;;;;;;5069485;28;20028;-40
2022/11/01 17:07:18;;;;;;;8.98;2.08;;;14.40;62.30;;;;;;5070746;28;20117;-39
2022/11/01 17:09:44;;;;;;;4.97;2.13;;;14.40;62.40;;;;;;5069319;28;20059;-39
2022/11/01 17:12:10;;;;;;;6.78;2.83;;;14.40;62.20;;;;;;5069387;28;20028;-39
2022/11/01 17:14:36;;;;;;;4.38;1.48;;;14.40;62.40;;;;;;5068957;28;20163;-39
2022/11/01 17:17:11;;;;;;;6.45;1.65;;;14.40;62.00;;;;;;5069739;28;20024;-38
2022/11/01 17:19:40;;;;;;;8.32;1.70;;;14.40;61.90;;;;;;5069581;28;20353;-40
2022/11/01 17:22:11;;;;;;;10.50;3.42;;;14.30;62.30;;;;;;5069207;28;20036;-39
2022/11/01 17:24:37;;;;;;;14.23;1.88;;;14.40;62.20;;;;;;5069364;28;20098;-38
2022/11/01 17:27:04;;;;;;;14.15;3.70;;;14.40;62.10;;;;;;5069475;28;20020;-40
2022/11/01 17:29:30;;;;;;;10.73;2.20;;;14.30;62.30;;;;;;5069665;28;20474;-39
2022/11/01 17:31:56;;;;;;;15.38;2.08;;;14.20;62.70;;;;;;5069393;28;20051;-48
2022/11/01 17:34:23;;;;;;;10.93;2.20;;;14.30;62.60;;;;;;5061666;28;20032;-39
2022/11/01 17:36:50;;;;;;;8.00;2.00;;;14.30;62.50;;;;;;5055693;28;20105;-39
2022/11/01 17:39:16;;;;;;;6.45;1.83;;;14.20;62.80;;;;;;5055628;28;20028;-38
2022/11/01 17:41:42;;;;;;;12.23;2.05;;;14.20;62.80;;;;;;5055654;28;20469;-39
2022/11/01 17:44:12;;;;;;;7.38;2.15;;;14.20;63.10;;;;;;5054582;28;20072;-39
2022/11/01 17:46:38;;;;;;;9.90;2.72;;;14.20;63.20;;;;;;5055994;28;20052;-38
2022/11/01 17:49:05;;;;;;;8.43;2.35;;;14.10;63.30;;;;;;5055784;28;20032;-38
2022/11/01 17:51:31;;;;;;;5.45;1.50;;;14.10;63.30;;;;;;5055467;28;20088;-38
2022/11/01 17:53:57;;;;;;;9.60;1.80;;;14.10;63.50;;;;;;5055215;28;20056;-44
2022/11/01 17:56:23;;;;;;;4.60;1.65;;;14.10;63.40;;;;;;5054626;28;20056;-50
2022/11/01 17:58:52;;;;;;;2.65;1.33;;;14.10;63.50;;;;;;5055392;28;20457;-50
2022/11/01 18:01:19;;;;;;;10.88;1.85;;;14.10;63.70;;;;;;5055596;28;20104;-48
2022/11/01 18:03:45;;;;;;;11.30;1.92;;;14.10;63.70;;;;;;5053631;28;20531;-49
2022/11/01 18:06:11;;;;;;;10.70;3.22;;;14.10;63.70;;;;;;5055352;28;20100;-48
2022/11/01 18:08:45;;;;;;;9.95;3.40;;;14.20;63.60;;;;;;5055310;28;20025;-50
2022/11/01 18:11:14;;;;;;;4.93;1.42;;;14.10;63.90;;;;;;5055199;28;20025;-52
2022/11/01 18:14:05;;;;;;;9.23;2.40;;;14.10;63.90;;;;;;5055754;28;20021;-48
2022/11/01 18:16:59;;;;;;;4.90;1.55;;;14.10;64.20;;;;;;5053791;28;20025;-51
2022/11/01 18:19:46;;;;;;;9.15;1.63;;;14.00;64.40;;;;;;5055344;28;20029;-48
2022/11/01 18:22:33;;;;;;;6.75;1.98;;;14.00;64.60;;;;;;5055143;28;20053;-50
2022/11/01 18:25:25;;;;;;;7.90;1.85;;;14.00;64.70;;;;;;5054890;28;20021;-48
2022/11/01 18:27:52;;;;;;;9.35;1.88;;;13.90;64.90;;;;;;5053551;28;20025;-52
2022/11/01 18:30:18;;;;;;;5.20;1.52;;;13.90;64.80;;;;;;5054828;28;20108;-49
2022/11/01 18:32:55;;;;;;;6.78;2.35;;;13.90;65.10;;;;;;5055111;28;20090;-48
2022/11/01 18:35:45;;;;;;;8.57;2.63;;;13.80;65.20;;;;;;5054532;28;20329;-48
2022/11/01 18:38:15;;;;;;;11.30;2.30;;;13.80;65.70;;;;;;5054836;28;20033;-49
2022/11/01 18:40:59;;;;;;;9.50;1.58;;;13.80;65.80;;;;;;5054570;28;20033;-48
2022/11/01 18:43:28;;;;;;;11.52;1.55;;;13.80;65.80;;;;;;5054276;28;20025;-49
2022/11/01 18:45:54;;;;;;;7.30;1.73;;;13.80;65.90;;;;;;5053393;28;20025;-49
2022/11/01 18:48:24;;;;;;;11.77;2.53;;;13.80;66.20;;;;;;5054676;28;20469;-49
2022/11/01 18:50:50;;;;;;;9.68;3.00;;;13.80;65.90;;;;;;5054411;28;20017;-49
2022/11/01 18:53:18;;;;;;;12.27;2.83;;;13.70;66.50;;;;;;5054225;28;20104;-48
2022/11/01 18:55:47;;;;;;;6.88;2.25;;;13.70;66.60;;;;;;5052865;28;20074;-48
2022/11/01 18:58:15;;;;;;;10.30;1.58;;;13.60;66.80;;;;;;5054173;28;20057;-49
2022/11/01 19:00:41;;;;;;;10.35;2.92;;;13.60;66.80;;;;;;5054217;28;20575;-52
2022/11/01 19:03:12;;;;;;;10.95;2.40;;;13.50;67.00;;;;;;5052607;28;20056;-49
2022/11/01 19:05:38;;;;;;;;;;;13.50;67.20;;;;;;5054761;28;20021;-49
2022/11/01 19:08:23;;;;;;;7.53;1.88;;;13.50;67.00;;;;;;5053996;28;20230;-52
2022/11/01 19:10:50;;;;;;;13.70;2.42;;;13.50;67.40;;;;;;5054083;28;20483;-48
2022/11/01 19:13:30;;;;;;;11.55;2.83;;;13.40;67.50;;;;;;5053788;28;20029;-50
2022/11/01 19:15:57;;;;;;;9.35;2.20;;;13.50;67.30;;;;;;5054099;28;20440;-49
2022/11/01 19:18:24;;;;;;;14.50;4.72;;;13.50;67.20;;;;;;5053756;28;20032;-50
2022/11/01 19:20:52;;;;;;;14.25;3.17;;;13.50;67.30;;;;;;5053989;28;20039;-50
2022/11/01 19:23:41;;;;;;;5.95;1.63;;;13.40;67.50;;;;;;5053275;28;20460;-51
2022/11/01 19:26:21;;;;;;;9.85;1.90;;;13.50;67.40;;;;;;5054298;28;20057;-50
2022/11/01 19:28:47;;;;;;;6.72;2.25;;;13.30;67.80;;;;;;5053800;28;20028;-48
2022/11/01 19:31:21;;;;;;;5.03;1.88;;;13.40;67.80;;;;;;5053306;28;20131;-48
2022/11/01 19:33:49;;;;;;;8.27;1.85;;;13.40;67.90;;;;;;5053431;28;20508;-49
2022/11/01 19:36:19;;;;;;;9.68;2.45;;;13.40;67.80;;;;;;5052529;28;20124;-50
2022/11/01 19:38:46;;;;;;;;;;;13.30;68.00;;;;;;5053731;28;20048;-49
2022/11/01 19:41:17;;;;;;;5.90;2.03;;;13.40;67.90;;;;;;5053627;28;19966;-51
2022/11/01 19:43:43;;;;;;;6.70;2.13;;;13.30;68.20;;;;;;5053636;28;20428;-49
2022/11/01 19:46:19;;;;;;;11.43;2.00;;;13.30;68.40;;;;;;5051928;28;20079;-50
2022/11/01 19:48:45;;;;;;;6.85;2.47;;;13.30;68.50;;;;;;5053169;28;20299;-50
2022/11/01 19:51:19;;;;;;;16.00;3.15;;;13.30;68.40;;;;;;5053177;28;20028;-48
2022/11/01 19:53:45;;;;;;;5.07;1.45;;;13.30;68.70;;;;;;5053125;28;20078;-49
2022/11/01 19:56:22;;;;;;;8.38;1.92;;;13.30;68.50;;;;;;5053277;28;20021;-50
2022/11/01 19:58:52;;;;;;;9.05;1.70;;;13.20;69.00;;;;;;5051713;28;20442;-49
2022/11/01 20:01:18;;;;;;;8.13;1.90;;;13.30;68.80;;;;;;5053494;28;20111;-48
2022/11/01 20:03:59;;;;;;;13.30;2.30;;;13.20;68.90;;;;;;5053102;28;20279;-49
2022/11/01 20:06:36;;;;;;;10.30;1.83;;;13.20;69.00;;;;;;5053371;28;20021;-49
2022/11/01 20:09:15;;;;;;;12.30;2.90;;;13.20;69.20;;;;;;5053057;28;20025;-49
2022/11/01 20:11:40;;;;;;;6.93;2.15;;;13.20;69.30;;;;;;5053284;28;20048;-48
2022/11/01 20:14:06;;;;;;;12.40;2.08;;;13.10;69.50;;;;;;5052021;28;20124;-49
2022/11/01 20:16:32;;;;;;;6.22;2.17;;;13.10;69.30;;;;;;5052181;28;20032;-54
2022/11/01 20:18:58;;;;;;;9.85;1.98;;;13.10;69.30;;;;;;5055218;28;20033;-53
2022/11/01 20:21:23;;;;;;;11.57;2.35;;;13.10;69.60;;;;;;5054006;28;20024;-50
2022/11/01 20:23:50;;;;;;;8.63;2.78;;;12.90;70.10;;;;;;5052666;28;20044;-48
2022/11/01 20:26:15;;;;;;;13.52;3.83;;;12.90;70.10;;;;;;5053573;28;20024;-51
2022/11/01 20:28:41;;;;;;;10.50;2.20;;;12.80;70.30;;;;;;5054309;28;20476;-51
2022/11/01 20:31:07;;;;;;;8.82;1.92;;;12.90;70.10;;;;;;5053965;28;20096;-49
2022/11/01 20:33:33;;;;;;;10.10;1.80;;;12.90;70.30;;;;;;5054457;28;20457;-50
2022/11/01 20:35:59;;;;;;;12.48;1.92;;;12.90;70.10;;;;;;5054544;28;20048;-49
2022/11/01 20:38:25;;;;;;;7.32;2.53;;;12.90;70.20;;;;;;5054583;28;20057;-53
2022/11/01 20:40:51;;;;;;;10.38;1.98;;;12.80;70.50;;;;;;5053023;28;20124;-50
2022/11/01 20:43:16;;;;;;;8.13;2.08;;;12.90;70.30;;;;;;5053025;28;20195;-49
2022/11/01 20:45:42;;;;;;;12.13;5.15;;;12.90;70.20;;;;;;5052936;28;20018;-52
2022/11/01 20:48:08;;;;;;;5.90;1.95;;;12.90;70.20;;;;;;5052639;28;20025;-50
2022/11/01 20:50:34;;;;;;;12.52;1.90;;;12.90;70.10;;;;;;5052406;28;20377;-51
2022/11/01 20:53:00;;;;;;;10.30;3.05;;;12.90;70.20;;;;;;5052651;28;20025;-53
2022/11/01 20:55:26;;;;;;;7.85;2.72;;;12.80;70.40;;;;;;5051309;28;20489;-50
2022/11/01 20:57:52;;;;;;;14.70;2.53;;;12.80;70.40;;;;;;5052552;28;20055;-48
2022/11/01 21:00:18;;;;;;;8.23;1.88;;;12.80;70.40;;;;;;5051276;28;20025;-51
2022/11/01 21:02:48;;;;;;;7.68;2.08;;;12.80;70.70;;;;;;5052309;28;20074;-50
2022/11/01 21:05:21;;;;;;;23.52;4.43;;;12.80;70.60;;;;;;5052645;28;20380;-47
2022/11/01 21:07:47;;;;;;;13.18;2.20;;;12.80;70.60;;;;;;5052706;28;20119;-49
2022/11/01 21:10:30;;;;;;;11.52;2.75;;;12.80;70.70;;;;;;5055167;28;20021;-49
2022/11/01 21:12:58;;;;;;;8.60;1.85;;;12.80;70.70;;;;;;5056222;28;20025;-50
2022/11/01 21:15:36;;;;;;;8.98;1.60;;;12.80;70.70;;;;;;5056134;28;20041;-51
2022/11/01 21:18:11;;;;;;;8.00;2.25;;;12.80;70.70;;;;;;5056423;28;20096;-51
2022/11/01 21:20:45;;;;;;;14.20;3.33;;;12.80;70.40;;;;;;5056459;28;20473;-49
2022/11/01 21:23:20;;;;;;;8.88;1.70;;;12.80;70.80;;;;;;5055626;28;20080;-49
2022/11/01 21:25:47;;;;;;;9.43;1.80;;;12.80;70.70;;;;;;5055803;28;20029;-48
2022/11/01 21:28:41;;;;;;;12.88;2.40;;;12.80;70.90;;;;;;5054399;28;20367;-50
2022/11/01 21:31:09;;;;;;;10.18;1.85;;;12.80;70.80;;;;;;5056084;28;20071;-49
2022/11/01 21:33:37;;;;;;;12.43;2.88;;;12.80;70.90;;;;;;5055731;28;20549;-50
2022/11/01 21:36:21;;;;;;;14.55;3.25;;;12.80;70.80;;;;;;5055739;28;20108;-50
2022/11/01 21:38:49;;;;;;;8.65;2.25;;;12.80;70.90;;;;;;5055964;28;20021;-51
2022/11/01 21:41:30;;;;;;;9.35;2.40;;;12.80;70.90;;;;;;5056284;28;20025;-49
2022/11/01 21:44:00;;;;;;;15.07;2.60;;;12.80;70.90;;;;;;5055908;28;20354;-49
2022/11/01 21:46:30;;;;;;;2.97;1.45;;;12.80;70.90;;;;;;5054427;28;20119;-51
2022/11/01 21:48:58;;;;;;;10.70;1.95;;;12.80;70.80;;;;;;5055507;28;20096;-51
2022/11/01 21:51:24;;;;;;;6.85;1.52;;;12.80;70.80;;;;;;5055699;28;20108;-52
2022/11/01 21:53:50;;;;;;;6.65;2.65;;;12.80;70.80;;;;;;5056369;28;20036;-52
2022/11/01 21:56:16;;;;;;;14.48;2.63;;;12.80;70.70;;;;;;5054208;28;20473;-49
2022/11/01 21:58:41;;;;;;;8.98;1.60;;;12.80;70.60;;;;;;5056192;28;20415;-48
2022/11/01 22:01:07;;;;;;;11.30;2.00;;;12.80;70.70;;;;;;5055267;28;20079;-49
2022/11/01 22:03:33;;;;;;;12.73;2.38;;;12.90;70.50;;;;;;5055541;28;20035;-50
2022/11/01 22:05:58;;;;;;;13.48;2.22;;;12.80;70.90;;;;;;5055196;28;20017;-48
2022/11/01 22:08:24;;;;;;;12.07;2.13;;;12.90;70.70;;;;;;5055151;28;20082;-49
2022/11/01 22:10:50;;;;;;;7.43;2.20;;;12.90;70.80;;;;;;5055192;28;20404;-48
2022/11/01 22:13:16;;;;;;;22.98;2.90;;;13.00;70.70;;;;;;5054994;28;20033;-50
2022/11/01 22:15:41;;;;;;;7.47;2.10;;;13.10;70.40;;;;;;5055694;28;20430;-49
2022/11/01 22:18:07;;;;;;;10.55;2.03;;;13.20;70.20;;;;;;5055124;28;20037;-49
2022/11/01 22:20:32;;;;;;;12.52;2.58;;;13.20;70.00;;;;;;5054796;28;20029;-49
2022/11/01 22:22:58;;;;;;;12.63;3.53;;;13.30;69.80;;;;;;5054712;28;20041;-51
2022/11/01 22:25:24;;;;;;;10.70;2.63;;;13.30;69.70;;;;;;5055324;28;20579;-52
2022/11/01 22:27:49;;;;;;;7.55;2.22;;;13.30;69.70;;;;;;5055845;28;20036;-54
2022/11/01 22:30:16;;;;;;;14.52;2.42;;;13.30;69.70;;;;;;5055362;28;20028;-54
2022/11/01 22:32:41;;;;;;;9.55;2.25;;;13.30;70.00;;;;;;5053737;28;20028;-49
2022/11/01 22:35:07;;;;;;;11.35;2.75;;;13.20;70.30;;;;;;5054935;28;20033;-52
2022/11/01 22:37:34;;;;;;;10.73;4.00;;;13.20;70.40;;;;;;5055619;28;20033;-52
2022/11/01 22:40:01;;;;;;;9.88;1.88;;;13.30;70.20;;;;;;5055118;28;20056;-51
2022/11/01 22:42:27;;;;;;;7.63;1.75;;;13.30;70.00;;;;;;5054070;28;20040;-53
2022/11/01 22:44:54;;;;;;;12.70;2.55;;;13.30;69.80;;;;;;5055544;28;20025;-55
2022/11/01 22:47:27;;;;;;;12.55;3.28;;;13.30;69.90;;;;;;5053920;28;20021;-52
2022/11/01 22:50:02;;;;;;;7.82;1.40;;;13.30;69.90;;;;;;5054208;28;20021;-53
2022/11/01 22:52:35;;;;;;;5.25;1.35;;;13.40;69.80;;;;;;5055763;28;20039;-52
2022/11/01 22:55:07;;;;;;;13.52;3.38;;;13.40;69.70;;;;;;5055784;28;20100;-53
2022/11/01 22:57:37;;;;;;;9.05;2.08;;;13.40;69.70;;;;;;5055057;28;20055;-50
2022/11/01 23:00:26;;;;;;;11.05;2.47;;;13.50;69.60;;;;;;5055129;28;20040;-53
2022/11/01 23:03:28;;;;;;;7.95;1.55;;;13.50;69.50;;;;;;5053327;28;20033;-52
2022/11/01 23:05:59;;;;;;;17.83;3.05;;;13.60;69.60;;;;;;5053237;28;20442;-50
2022/11/01 23:08:36;;;;;;;11.68;4.15;;;13.50;69.70;;;;;;5054738;28;20021;-49